Time;durP1;ratioP1;P1;durP2;ratioP2;P2;SDS_P1;SDS_P2;PMS_P1;PMS_P2;Temp;Humidity;BMP_temperature;BMP_pressure;BME280_temperature;BME280_humidity;BME280_pressure;Samples;Min_cycle;Max_cycle;Signal;HPM_P1;HPM_P2
2023/08/01 00:00:38;;;;;;;0.10;0.10;;;16.50;99.90;;;;;;5053453;28;20102;-61
2023/08/01 00:03:04;;;;;;;;;;;16.80;99.90;;;;;;5054145;28;20127;-63
2023/08/01 00:05:30;;;;;;;0.35;0.25;;;16.10;99.90;;;;;;5053695;28;19931;-62
2023/08/01 00:07:55;;;;;;;;;;;16.30;99.90;;;;;;5054333;28;20103;-63
2023/08/01 00:10:21;;;;;;;0.10;0.10;;;16.10;99.90;;;;;;5053603;28;19925;-64
2023/08/01 00:12:46;;;;;;;;;;;15.90;99.90;;;;;;5053929;28;20132;-61
2023/08/01 00:15:12;;;;;;;0.10;0.10;;;16.80;99.90;;;;;;5053532;28;19927;-62
2023/08/01 00:17:38;;;;;;;;;;;16.60;99.90;;;;;;5053674;28;20120;-61
2023/08/01 00:20:04;;;;;;;0.10;0.10;;;15.70;99.90;;;;;;5052330;28;19921;-61
2023/08/01 00:22:30;;;;;;;0.10;0.10;;;16.80;99.90;;;;;;5052966;28;20477;-64
2023/08/01 00:24:55;;;;;;;;;;;15.70;99.90;;;;;;5053749;28;20049;-62
2023/08/01 00:27:21;;;;;;;0.17;0.17;;;16.70;99.90;;;;;;5053294;28;19929;-64
2023/08/01 00:29:47;;;;;;;0.20;0.20;;;15.50;99.90;;;;;;5053231;28;20065;-62
2023/08/01 00:32:12;;;;;;;;;;;16.30;99.90;;;;;;5053703;28;20041;-62
2023/08/01 00:34:38;;;;;;;0.45;0.45;;;16.00;99.90;;;;;;5053257;28;20016;-62
2023/08/01 00:37:04;;;;;;;;;;;16.30;99.90;;;;;;5053607;28;20477;-62
2023/08/01 00:39:30;;;;;;;0.13;0.13;;;16.80;99.90;;;;;;5053215;28;19928;-63
2023/08/01 00:41:56;;;;;;;;;;;16.30;99.90;;;;;;5053762;28;20090;-62
2023/08/01 00:44:21;;;;;;;0.20;0.20;;;15.60;99.90;;;;;;5052792;28;19928;-62
2023/08/01 00:46:47;;;;;;;;;;;16.70;99.90;;;;;;5053377;28;20045;-67
2023/08/01 00:49:15;;;;;;;0.32;0.30;;;15.90;99.90;;;;;;5052928;28;19920;-62
2023/08/01 00:51:41;;;;;;;0.43;0.43;;;15.40;99.90;;;;;;5052806;28;20113;-63
2023/08/01 00:54:06;;;;;;;0.30;0.30;;;16.70;99.90;;;;;;5052749;28;20055;-62
2023/08/01 00:56:32;;;;;;;;;;;15.70;99.90;;;;;;5053061;28;20044;-62
2023/08/01 00:58:58;;;;;;;0.10;0.10;;;16.10;99.90;;;;;;5052688;28;19972;-63
2023/08/01 01:01:24;;;;;;;;;;;16.00;99.90;;;;;;5052979;28;20508;-62
2023/08/01 01:03:50;;;;;;;0.40;0.40;;;16.00;99.90;;;;;;5052472;28;19925;-61
2023/08/01 01:06:34;;;;;;;0.10;0.10;;;14.90;99.90;;;;;;5051797;28;20060;-62
2023/08/01 01:09:00;;;;;;;0.77;0.63;;;16.00;99.90;;;;;;5052639;28;20063;-62
2023/08/01 01:11:25;;;;;;;;;;;15.10;99.90;;;;;;5052762;28;20049;-63
2023/08/01 01:13:54;;;;;;;0.30;0.25;;;15.70;99.90;;;;;;5052381;28;19920;-62
2023/08/01 01:16:20;;;;;;;0.45;0.30;;;15.90;99.90;;;;;;5052291;28;20045;-62
2023/08/01 01:18:46;;;;;;;0.30;0.30;;;15.70;99.90;;;;;;5052340;28;20507;-62
2023/08/01 01:21:11;;;;;;;;;;;14.70;99.90;;;;;;5052757;28;20128;-62
2023/08/01 01:23:38;;;;;;;0.15;0.15;;;14.70;99.90;;;;;;5052099;28;20361;-62
2023/08/01 01:26:06;;;;;;;0.28;0.28;;;15.20;99.90;;;;;;5052106;28;20052;-62
2023/08/01 01:28:33;;;;;;;1.45;0.95;;;14.80;99.90;;;;;;5051465;28;20056;-61
2023/08/01 01:31:00;;;;;;;0.65;0.30;;;15.60;99.90;;;;;;5052124;28;20060;-63
2023/08/01 01:33:26;;;;;;;0.60;0.60;;;14.60;99.90;;;;;;5050778;28;20467;-62
2023/08/01 01:35:51;;;;;;;;;;;14.30;99.90;;;;;;5052431;28;20170;-62
2023/08/01 01:38:17;;;;;;;0.38;0.38;;;14.80;99.90;;;;;;5051954;28;19921;-62
2023/08/01 01:40:42;;;;;;;;;;;14.90;99.90;;;;;;5052355;28;20051;-61
2023/08/01 01:43:08;;;;;;;0.55;0.50;;;14.50;99.90;;;;;;5051911;28;19921;-62
2023/08/01 01:45:35;;;;;;;;;;;14.80;99.90;;;;;;5052477;28;20063;-61
2023/08/01 01:48:00;;;;;;;6.07;0.40;;;14.50;99.90;;;;;;5051144;28;19931;-62
2023/08/01 01:50:26;;;;;;;;;;;14.70;99.90;;;;;;5051002;28;20404;-64
2023/08/01 01:52:51;;;;;;;0.20;0.20;;;15.20;99.90;;;;;;5051746;28;19920;-62
2023/08/01 01:55:17;;;;;;;;;;;14.50;99.90;;;;;;5051955;28;20174;-61
2023/08/01 01:57:43;;;;;;;0.60;0.57;;;14.50;99.90;;;;;;5051442;28;19971;-62
2023/08/01 02:00:11;;;;;;;;;;;14.70;99.90;;;;;;5052007;28;20048;-62
2023/08/01 02:02:37;;;;;;;0.17;0.17;;;15.10;99.90;;;;;;5051362;28;19995;-62
2023/08/01 02:05:05;;;;;;;0.40;0.40;;;14.80;99.90;;;;;;5051429;28;20449;-62
2023/08/01 02:07:33;;;;;;;1.20;0.30;;;15.00;99.90;;;;;;5033496;28;20454;-62
2023/08/01 02:09:59;;;;;;;0.50;0.43;;;14.30;99.90;;;;;;5051432;28;20041;-62
2023/08/01 02:12:25;;;;;;;0.30;0.30;;;15.20;99.90;;;;;;5051524;28;20485;-63
2023/08/01 02:14:51;;;;;;;0.20;0.20;;;14.80;99.90;;;;;;5051541;28;20049;-64
2023/08/01 02:17:16;;;;;;;0.20;0.20;;;15.10;99.90;;;;;;5051437;28;20051;-62
2023/08/01 02:19:42;;;;;;;;;;;14.70;99.90;;;;;;5051812;28;20053;-62
2023/08/01 02:22:08;;;;;;;0.38;0.30;;;14.90;99.90;;;;;;5051744;28;19929;-64
2023/08/01 02:24:33;;;;;;;;;;;13.90;99.90;;;;;;5051782;28;20041;-62
2023/08/01 02:26:59;;;;;;;0.30;0.30;;;14.80;99.90;;;;;;5051646;28;19920;-62
2023/08/01 02:29:24;;;;;;;;;;;14.60;99.90;;;;;;5051899;28;20045;-62
2023/08/01 02:31:50;;;;;;;0.10;0.10;;;14.80;99.90;;;;;;5051467;28;19968;-62
2023/08/01 02:34:15;;;;;;;;;;;14.70;99.90;;;;;;5052066;28;20041;-61
2023/08/01 02:36:41;;;;;;;0.20;0.20;;;15.10;99.90;;;;;;5050326;28;20361;-66
2023/08/01 02:39:07;;;;;;;0.22;0.22;;;14.10;99.90;;;;;;5050259;28;20378;-62
2023/08/01 02:41:32;;;;;;;;;;;15.20;99.90;;;;;;5055846;28;20067;-62
2023/08/01 02:43:58;;;;;;;4.18;1.10;;;14.10;99.90;;;;;;5054803;28;19938;-62
2023/08/01 02:46:24;;;;;;;;;;;14.90;99.90;;;;;;5055543;28;20059;-63
2023/08/01 02:48:49;;;;;;;0.75;0.75;;;14.50;99.90;;;;;;5055219;28;19931;-62
2023/08/01 02:51:15;;;;;;;;;;;14.70;99.90;;;;;;5055502;28;20132;-62
2023/08/01 02:53:41;;;;;;;1.05;0.75;;;14.60;99.90;;;;;;5054950;28;20058;-62
2023/08/01 02:56:08;;;;;;;;;;;14.40;99.90;;;;;;5055378;28;20503;-64
2023/08/01 02:58:34;;;;;;;0.73;0.73;;;15.30;99.90;;;;;;5053873;28;19927;-62
2023/08/01 03:01:01;;;;;;;0.68;0.68;;;14.80;99.90;;;;;;5055156;28;20412;-64
2023/08/01 03:03:27;;;;;;;0.47;0.47;;;15.20;99.90;;;;;;5053554;28;20045;-62
2023/08/01 03:05:53;;;;;;;0.77;0.77;;;14.90;99.90;;;;;;5037200;28;20427;-62
2023/08/01 03:08:18;;;;;;;;;;;15.30;99.90;;;;;;5053540;28;20085;-62
2023/08/01 03:10:44;;;;;;;0.32;0.32;;;15.30;99.90;;;;;;5054661;28;20371;-62
2023/08/01 03:13:10;;;;;;;0.65;0.65;;;14.60;99.90;;;;;;5054640;28;20148;-61
2023/08/01 03:15:37;;;;;;;0.50;0.50;;;15.20;99.90;;;;;;5054898;28;20449;-63
2023/08/01 03:18:03;;;;;;;1.00;0.60;;;15.40;99.90;;;;;;5054525;28;20163;-61
2023/08/01 03:20:29;;;;;;;0.70;0.70;;;15.20;99.90;;;;;;5054511;28;20417;-62
2023/08/01 03:22:55;;;;;;;0.20;0.20;;;15.40;99.90;;;;;;5054643;28;20048;-62
2023/08/01 03:25:20;;;;;;;;;;;14.70;99.90;;;;;;5054904;28;20663;-62
2023/08/01 03:27:46;;;;;;;0.40;0.40;;;15.10;99.90;;;;;;5054401;28;19974;-62
2023/08/01 03:30:12;;;;;;;;;;;15.40;99.90;;;;;;5054832;28;20088;-65
2023/08/01 03:32:37;;;;;;;0.20;0.20;;;14.40;99.90;;;;;;5054371;28;20276;-63
2023/08/01 03:35:06;;;;;;;0.30;0.30;;;14.60;99.90;;;;;;5054300;28;20470;-63
2023/08/01 03:37:32;;;;;;;0.65;0.65;;;15.50;99.90;;;;;;5054254;28;20048;-64
2023/08/01 03:39:58;;;;;;;4.25;0.57;;;14.50;99.90;;;;;;5054447;28;20130;-62
2023/08/01 03:42:24;;;;;;;;;;;15.80;99.90;;;;;;5053572;28;20558;-63
2023/08/01 03:44:49;;;;;;;0.32;0.32;;;15.40;99.90;;;;;;5054139;28;19920;-62
2023/08/01 03:47:15;;;;;;;;;;;14.90;99.90;;;;;;5054447;28;20041;-62
2023/08/01 03:49:40;;;;;;;0.38;0.38;;;14.50;99.90;;;;;;5054040;28;19967;-62
2023/08/01 03:52:06;;;;;;;;;;;15.40;99.90;;;;;;5053827;28;20084;-62
2023/08/01 03:54:32;;;;;;;0.20;0.20;;;15.20;99.90;;;;;;5054096;28;20360;-62
2023/08/01 03:56:57;;;;;;;;;;;14.80;99.90;;;;;;5054257;28;20049;-62
2023/08/01 03:59:26;;;;;;;0.40;0.40;;;15.60;99.90;;;;;;5053784;28;19982;-65
2023/08/01 04:01:51;;;;;;;1.23;0.63;;;14.50;99.90;;;;;;5053811;28;20053;-62
2023/08/01 04:04:17;;;;;;;0.95;0.70;;;14.30;99.90;;;;;;5053671;28;20114;-62
2023/08/01 04:06:42;;;;;;;;;;;15.70;99.90;;;;;;5053829;28;20060;-63
2023/08/01 04:09:08;;;;;;;0.15;0.15;;;15.50;99.90;;;;;;5053715;28;19970;-63
2023/08/01 04:11:34;;;;;;;;;;;15.70;99.90;;;;;;5053984;28;20049;-62
2023/08/01 04:14:00;;;;;;;0.45;0.45;;;14.60;99.90;;;;;;5053640;28;19931;-62
2023/08/01 04:16:25;;;;;;;;;;;14.50;99.90;;;;;;5053976;28;20052;-62
2023/08/01 04:18:51;;;;;;;0.50;0.50;;;14.40;99.90;;;;;;5053486;28;20025;-62
2023/08/01 04:21:16;;;;;;;;;;;15.20;99.90;;;;;;5052550;28;20055;-62
2023/08/01 04:23:42;;;;;;;0.32;0.32;;;15.40;99.90;;;;;;5053278;28;19925;-62
2023/08/01 04:26:08;;;;;;;;;;;15.00;99.90;;;;;;5053706;28;20110;-64
2023/08/01 04:28:36;;;;;;;0.63;0.20;;;15.60;99.90;;;;;;5053241;28;19943;-62
2023/08/01 04:31:02;;;;;;;0.10;0.10;;;15.40;99.90;;;;;;5053144;28;20049;-62
2023/08/01 04:33:28;;;;;;;0.32;0.32;;;14.90;99.90;;;;;;5052988;28;20098;-64
2023/08/01 04:35:53;;;;;;;0.60;0.45;;;15.00;99.90;;;;;;5053213;28;20044;-62
2023/08/01 04:38:19;;;;;;;0.25;0.25;;;15.90;99.90;;;;;;5051940;28;20118;-62
2023/08/01 04:40:45;;;;;;;0.10;0.10;;;15.60;99.90;;;;;;5053051;28;20051;-62
2023/08/01 04:43:12;;;;;;;0.20;0.20;;;15.40;99.90;;;;;;5052705;28;20112;-63
2023/08/01 04:45:38;;;;;;;0.10;0.10;;;15.60;99.90;;;;;;5052935;28;20095;-62
2023/08/01 04:48:03;;;;;;;0.17;0.17;;;15.30;99.90;;;;;;5052905;28;20053;-63
2023/08/01 04:50:29;;;;;;;;;;;15.90;99.90;;;;;;5052942;28;20443;-62
2023/08/01 04:52:54;;;;;;;0.10;0.10;;;15.50;99.90;;;;;;5052761;28;19974;-62
2023/08/01 04:55:20;;;;;;;;;;;15.90;99.90;;;;;;5053236;28;20477;-62
2023/08/01 04:57:46;;;;;;;0.00;0.00;;;16.00;99.90;;;;;;5052646;28;20292;-62
2023/08/01 05:00:12;;;;;;;;;;;16.00;99.90;;;;;;5053431;28;20091;-68
2023/08/01 05:02:37;;;;;;;1.95;1.85;;;14.80;99.90;;;;;;5052147;28;21832;-61
2023/08/01 05:05:03;;;;;;;;;;;14.60;99.90;;;;;;5052607;28;20436;-62
2023/08/01 05:07:29;;;;;;;0.20;0.20;;;15.80;99.90;;;;;;5052462;28;19928;-61
2023/08/01 05:09:55;;;;;;;0.15;0.15;;;14.70;99.90;;;;;;5052517;28;20397;-61
2023/08/01 05:12:21;;;;;;;0.17;0.17;;;15.40;99.90;;;;;;5052349;28;20041;-61
2023/08/01 05:14:47;;;;;;;;;;;14.90;99.90;;;;;;5052748;28;20180;-60
2023/08/01 05:17:12;;;;;;;0.35;0.20;;;14.60;99.90;;;;;;5052273;28;20414;-64
2023/08/01 05:19:38;;;;;;;;;;;14.30;99.90;;;;;;5052341;28;20056;-62
2023/08/01 05:22:04;;;;;;;0.20;0.20;;;15.30;99.90;;;;;;5051226;28;19920;-62
2023/08/01 05:24:30;;;;;;;0.10;0.10;;;14.10;99.90;;;;;;5052044;28;20045;-62
2023/08/01 05:26:55;;;;;;;0.55;0.55;;;14.40;99.90;;;;;;5052174;28;20451;-62
2023/08/01 05:29:21;;;;;;;0.20;0.20;;;14.80;99.90;;;;;;5051784;28;20049;-63
2023/08/01 05:31:47;;;;;;;0.15;0.15;;;14.60;99.90;;;;;;5051053;28;20147;-62
2023/08/01 05:34:12;;;;;;;;;;;14.20;99.90;;;;;;5052556;28;20080;-63
2023/08/01 05:36:38;;;;;;;0.10;0.10;;;14.90;99.90;;;;;;5052258;28;20388;-62
2023/08/01 05:39:04;;;;;;;;;;;14.30;99.90;;;;;;5052132;28;20136;-64
2023/08/01 05:41:29;;;;;;;1.02;0.57;;;14.90;99.90;;;;;;5051897;28;19927;-61
2023/08/01 05:43:56;;;;;;;0.25;0.25;;;15.20;99.90;;;;;;5051870;28;20045;-62
2023/08/01 05:46:21;;;;;;;0.10;0.10;;;15.20;99.90;;;;;;5051813;28;20052;-62
2023/08/01 05:48:47;;;;;;;0.13;0.13;;;14.30;99.90;;;;;;5051871;28;20481;-62
2023/08/01 05:51:12;;;;;;;;;;;15.70;99.90;;;;;;5051879;28;20076;-62
2023/08/01 05:53:38;;;;;;;0.10;0.10;;;15.60;99.90;;;;;;5051777;28;19925;-64
2023/08/01 05:56:04;;;;;;;;;;;15.50;99.90;;;;;;5052095;28;20048;-64
2023/08/01 05:58:30;;;;;;;0.20;0.20;;;15.40;99.90;;;;;;5050624;28;19947;-64
2023/08/01 06:00:56;;;;;;;0.20;0.20;;;14.20;99.90;;;;;;5051671;28;20396;-63
2023/08/01 06:03:22;;;;;;;0.30;0.30;;;15.50;99.90;;;;;;5051554;28;20094;-62
2023/08/01 06:05:48;;;;;;;0.10;0.10;;;15.80;99.90;;;;;;5051731;28;20041;-63
2023/08/01 06:08:15;;;;;;;0.20;0.20;;;15.80;99.90;;;;;;5051720;28;20064;-64
2023/08/01 06:10:41;;;;;;;0.10;0.10;;;14.40;99.90;;;;;;5050663;28;20118;-63
2023/08/01 06:13:08;;;;;;;1.05;0.93;;;15.10;99.90;;;;;;5051508;28;20086;-62
2023/08/01 06:15:34;;;;;;;0.40;0.40;;;15.80;99.90;;;;;;5051285;28;20087;-62
2023/08/01 06:17:59;;;;;;;0.13;0.13;;;16.10;99.90;;;;;;5051725;28;20481;-63
2023/08/01 06:20:25;;;;;;;;;;;15.40;99.90;;;;;;5036796;28;20159;-63
2023/08/01 06:22:51;;;;;;;0.10;0.10;;;15.90;99.90;;;;;;5050064;28;19979;-62
2023/08/01 06:25:17;;;;;;;;;;;15.20;99.90;;;;;;5058459;28;20052;-63
2023/08/01 06:27:42;;;;;;;0.65;0.65;;;16.30;99.90;;;;;;5070684;28;20481;-62
2023/08/01 06:30:08;;;;;;;;;;;15.40;99.90;;;;;;5071661;28;20120;-62
2023/08/01 06:32:33;;;;;;;0.20;0.20;;;16.50;99.90;;;;;;5057382;28;20574;-62
2023/08/01 06:34:59;;;;;;;;;;;16.20;99.90;;;;;;5054695;28;20099;-65
2023/08/01 06:37:25;;;;;;;0.20;0.20;;;16.60;99.90;;;;;;5071102;28;19924;-63
2023/08/01 06:39:50;;;;;;;;;;;16.30;99.90;;;;;;5071257;28;20497;-63
2023/08/01 06:42:16;;;;;;;0.20;0.20;;;16.40;99.90;;;;;;5070661;28;19931;-62
2023/08/01 06:44:41;;;;;;;;;;;16.60;99.90;;;;;;5071451;28;20045;-63
2023/08/01 06:47:07;;;;;;;0.40;0.40;;;16.90;99.90;;;;;;5071015;28;19969;-63
2023/08/01 06:49:33;;;;;;;;;;;16.90;99.90;;;;;;5070945;28;20127;-64
2023/08/01 06:51:59;;;;;;;1.35;0.38;;;15.80;99.90;;;;;;5070422;28;19920;-63
2023/08/01 06:54:24;;;;;;;;;;;15.70;99.90;;;;;;5063760;28;20095;-64
2023/08/01 06:56:50;;;;;;;0.38;0.30;;;16.60;99.90;;;;;;5068697;28;19924;-69
2023/08/01 06:59:16;;;;;;;;;;;16.20;99.90;;;;;;5071089;28;20048;-63
2023/08/01 07:01:43;;;;;;;0.00;0.00;;;15.80;99.90;;;;;;5070464;28;20047;-63
2023/08/01 07:04:10;;;;;;;0.20;0.20;;;16.20;99.90;;;;;;5070722;28;20048;-64
2023/08/01 07:06:35;;;;;;;0.10;0.10;;;15.70;99.90;;;;;;5054453;28;20064;-64
2023/08/01 07:09:01;;;;;;;;;;;15.80;99.90;;;;;;5045613;28;20564;-65
2023/08/01 07:11:27;;;;;;;1.85;1.02;;;16.40;99.90;;;;;;5048488;28;19973;-65
2023/08/01 07:13:52;;;;;;;;;;;16.20;99.90;;;;;;5035512;28;20033;-61
2023/08/01 07:16:18;;;;;;;0.10;0.10;;;16.20;99.90;;;;;;5046519;28;20380;-65
2023/08/01 07:18:43;;;;;;;;;;;16.30;99.90;;;;;;5051141;28;20049;-65
2023/08/01 07:21:09;;;;;;;0.20;0.20;;;15.50;99.90;;;;;;5050291;28;19933;-65
2023/08/01 07:23:35;;;;;;;;;;;15.20;99.90;;;;;;5042252;28;20050;-68
2023/08/01 07:26:01;;;;;;;0.25;0.25;;;15.30;99.90;;;;;;5050688;28;19927;-62
2023/08/01 07:28:27;;;;;;;;;;;15.10;99.90;;;;;;5048101;28;20130;-62
2023/08/01 07:31:05;;;;;;;0.10;0.10;;;15.70;99.90;;;;;;5043166;28;19921;-62
2023/08/01 07:33:31;;;;;;;0.10;0.10;;;15.90;99.90;;;;;;5044700;28;20051;-65
2023/08/01 07:35:57;;;;;;;0.10;0.10;;;15.30;99.90;;;;;;5038470;28;20037;-63
2023/08/01 07:38:23;;;;;;;;;;;15.30;99.90;;;;;;5034498;28;20107;-63
2023/08/01 07:40:49;;;;;;;1.00;0.63;;;16.20;99.90;;;;;;5036671;28;20392;-63
2023/08/01 07:43:15;;;;;;;0.65;0.65;;;15.00;99.90;;;;;;5053926;28;20037;-62
2023/08/01 07:45:40;;;;;;;;;;;16.00;99.90;;;;;;5054039;28;20441;-63
2023/08/01 07:48:06;;;;;;;0.20;0.20;;;15.70;99.90;;;;;;5053909;28;19925;-62
2023/08/01 07:50:32;;;;;;;;;;;15.90;99.90;;;;;;5054352;28;20076;-61
2023/08/01 07:52:57;;;;;;;0.10;0.10;;;15.80;99.90;;;;;;5053373;28;20380;-64
2023/08/01 07:55:23;;;;;;;;;;;16.30;99.90;;;;;;5053811;28;20052;-62
2023/08/01 07:57:49;;;;;;;0.28;0.28;;;17.60;99.90;;;;;;5053632;28;19920;-62
2023/08/01 08:00:15;;;;;;;;;;;16.60;99.90;;;;;;5050153;28;20053;-63
2023/08/01 08:02:45;;;;;;;0.20;0.20;;;17.30;99.90;;;;;;5045693;28;20372;-66
2023/08/01 08:05:11;;;;;;;2.00;1.45;;;17.20;99.90;;;;;;5053223;28;20056;-65
2023/08/01 08:07:37;;;;;;;;;;;16.50;99.90;;;;;;5053642;28;20065;-62
2023/08/01 08:10:06;;;;;;;3.70;0.30;;;16.00;99.90;;;;;;5053041;28;19925;-61
2023/08/01 08:12:32;;;;;;;0.60;0.30;;;15.80;99.90;;;;;;5052713;28;20049;-64
2023/08/01 08:14:58;;;;;;;0.10;0.10;;;15.70;99.90;;;;;;5052891;28;20049;-65
2023/08/01 08:17:23;;;;;;;;;;;15.30;99.90;;;;;;5053777;28;20094;-63
2023/08/01 08:19:49;;;;;;;0.10;0.10;;;15.60;99.90;;;;;;5053347;28;19925;-65
2023/08/01 08:22:15;;;;;;;;;;;15.70;99.90;;;;;;5053469;28;20456;-63
2023/08/01 08:24:40;;;;;;;0.20;0.20;;;15.50;99.90;;;;;;5052970;28;19925;-64
2023/08/01 08:27:06;;;;;;;;;;;16.00;99.90;;;;;;5053007;28;20132;-65
2023/08/01 08:29:32;;;;;;;0.10;0.10;;;15.60;99.90;;;;;;5052962;28;19925;-66
2023/08/01 08:31:58;;;;;;;0.13;0.13;;;15.00;99.90;;;;;;5052832;28;20049;-64
2023/08/01 08:34:24;;;;;;;0.10;0.10;;;16.00;99.90;;;;;;5031213;28;20128;-64
2023/08/01 08:36:50;;;;;;;;;;;15.30;99.90;;;;;;5040909;28;20124;-64
2023/08/01 08:39:17;;;;;;;0.10;0.10;;;15.00;99.90;;;;;;5031580;28;19929;-65
2023/08/01 08:41:47;;;;;;;0.10;0.10;;;15.70;99.90;;;;;;5037949;28;20057;-65
2023/08/01 08:44:16;;;;;;;0.30;0.30;;;15.90;99.90;;;;;;5051884;28;20111;-61
2023/08/01 08:46:43;;;;;;;0.60;0.55;;;15.70;99.90;;;;;;5062411;28;20048;-62
2023/08/01 08:49:10;;;;;;;0.15;0.15;;;16.00;99.90;;;;;;5071803;28;20048;-63
2023/08/01 08:51:38;;;;;;;;;;;16.20;99.90;;;;;;5072182;28;20055;-64
2023/08/01 08:54:05;;;;;;;0.20;0.20;;;15.20;99.90;;;;;;5072472;28;19966;-62
2023/08/01 08:56:33;;;;;;;0.10;0.10;;;15.70;99.90;;;;;;5072405;28;20078;-64
2023/08/01 08:58:59;;;;;;;0.10;0.10;;;15.50;99.90;;;;;;5072425;28;20101;-63
2023/08/01 09:01:26;;;;;;;0.10;0.10;;;15.90;99.90;;;;;;5044770;28;20051;-64
2023/08/01 09:03:53;;;;;;;0.10;0.10;;;15.00;99.90;;;;;;5051856;28;20088;-63
2023/08/01 09:06:37;;;;;;;2.50;0.45;;;15.60;99.90;;;;;;5052677;28;20048;-62
2023/08/01 09:09:10;;;;;;;0.10;0.10;;;15.40;99.90;;;;;;5050654;28;20386;-64
2023/08/01 09:11:51;;;;;;;0.10;0.10;;;16.80;99.90;;;;;;5052131;28;20088;-67
2023/08/01 09:14:18;;;;;;;0.10;0.10;;;15.80;99.90;;;;;;5042828;28;20054;-62
2023/08/01 09:16:46;;;;;;;0.77;0.77;;;16.70;99.90;;;;;;5037714;28;20409;-63
2023/08/01 09:19:27;;;;;;;0.10;0.10;;;16.50;99.90;;;;;;5035228;28;20106;-64
2023/08/01 09:21:53;;;;;;;0.10;0.10;;;16.70;99.90;;;;;;5044973;28;20081;-62
2023/08/01 09:24:20;;;;;;;4.97;0.57;;;17.50;99.90;;;;;;5039167;28;20094;-62
2023/08/01 09:26:48;;;;;;;0.10;0.10;;;17.50;99.90;;;;;;5042845;28;20056;-70
2023/08/01 09:29:16;;;;;;;0.10;0.10;;;17.50;99.90;;;;;;5039753;28;20045;-62
2023/08/01 09:31:43;;;;;;;0.20;0.20;;;16.60;99.90;;;;;;5054229;28;20040;-66
2023/08/01 09:34:23;;;;;;;2.30;0.32;;;16.90;99.90;;;;;;5049035;28;20516;-62
2023/08/01 09:36:50;;;;;;;0.45;0.45;;;16.80;99.90;;;;;;5035714;28;20049;-62
2023/08/01 09:39:20;;;;;;;0.10;0.10;;;17.70;99.90;;;;;;5050791;28;20049;-61
2023/08/01 09:41:54;;;;;;;1.15;0.35;;;17.20;99.90;;;;;;5051201;28;20049;-62
2023/08/01 09:44:20;;;;;;;0.30;0.30;;;16.50;99.90;;;;;;5050941;28;20576;-62
2023/08/01 09:46:59;;;;;;;;;;;15.40;99.90;;;;;;5050989;28;20140;-63
2023/08/01 09:49:24;;;;;;;0.20;0.20;;;16.10;99.90;;;;;;5050183;28;20023;-65
2023/08/01 09:51:50;;;;;;;;;;;16.30;99.90;;;;;;5050556;28;20127;-64
2023/08/01 09:54:17;;;;;;;0.20;0.20;;;16.80;99.90;;;;;;5047539;28;20720;-63
2023/08/01 09:56:49;;;;;;;0.65;0.65;;;16.80;99.90;;;;;;5049923;28;20055;-65
2023/08/01 09:59:20;;;;;;;0.10;0.10;;;16.90;99.90;;;;;;5051337;28;20063;-64
2023/08/01 10:01:51;;;;;;;0.20;0.20;;;17.40;99.90;;;;;;5050954;28;20084;-63
2023/08/01 10:04:23;;;;;;;0.30;0.30;;;17.50;99.90;;;;;;5050251;28;20067;-65
2023/08/01 10:06:56;;;;;;;0.10;0.10;;;16.80;99.90;;;;;;5050004;28;20057;-63
2023/08/01 10:09:22;;;;;;;0.10;0.10;;;16.80;99.90;;;;;;5051375;28;20094;-64
2023/08/01 10:11:49;;;;;;;0.20;0.20;;;16.80;99.90;;;;;;5050178;28;20144;-63
2023/08/01 10:14:16;;;;;;;1.58;0.52;;;17.50;99.90;;;;;;5050061;28;20045;-64
2023/08/01 10:16:42;;;;;;;0.20;0.20;;;17.50;99.90;;;;;;5050883;28;20060;-63
2023/08/01 10:19:09;;;;;;;0.22;0.20;;;17.40;99.90;;;;;;5051172;28;20064;-64
2023/08/01 10:21:36;;;;;;;0.32;0.32;;;17.60;99.90;;;;;;5051005;28;20481;-63
2023/08/01 10:24:05;;;;;;;0.73;0.73;;;18.30;99.90;;;;;;5050077;28;20124;-63
2023/08/01 10:26:31;;;;;;;0.28;0.22;;;17.80;99.90;;;;;;5050962;28;20048;-63
2023/08/01 10:28:58;;;;;;;;;;;18.10;99.90;;;;;;5050523;28;20041;-63
2023/08/01 10:31:24;;;;;;;0.08;0.08;;;17.90;99.90;;;;;;5050801;28;19924;-65
2023/08/01 10:33:50;;;;;;;;;;;18.30;99.90;;;;;;5050260;28;20574;-64
2023/08/01 10:36:22;;;;;;;0.10;0.10;;;18.40;99.90;;;;;;5050064;28;20436;-64
2023/08/01 10:38:56;;;;;;;0.30;0.20;;;18.70;99.90;;;;;;5051106;28;20045;-64
2023/08/01 10:41:27;;;;;;;0.10;0.10;;;18.60;99.90;;;;;;5051021;28;20063;-64
2023/08/01 10:44:08;;;;;;;1.13;0.50;;;18.70;99.90;;;;;;5049980;28;20045;-65
2023/08/01 10:46:47;;;;;;;0.17;0.17;;;18.60;99.90;;;;;;5050791;28;20049;-63
2023/08/01 10:49:13;;;;;;;0.45;0.35;;;18.70;99.90;;;;;;5049428;28;20397;-66
2023/08/01 10:51:38;;;;;;;;;;;18.50;99.90;;;;;;5051188;28;20049;-63
2023/08/01 10:54:04;;;;;;;0.20;0.20;;;18.60;99.90;;;;;;5033041;28;20035;-64
2023/08/01 10:56:31;;;;;;;0.50;0.30;;;18.50;99.90;;;;;;5034707;28;20060;-64
2023/08/01 10:58:57;;;;;;;0.20;0.20;;;18.80;99.90;;;;;;5046531;28;20052;-63
2023/08/01 11:01:23;;;;;;;0.20;0.20;;;18.60;99.90;;;;;;5050627;28;20049;-63
2023/08/01 11:03:50;;;;;;;;;;;18.40;99.90;;;;;;5052455;28;20499;-64
2023/08/01 11:06:16;;;;;;;0.20;0.20;;;18.20;99.90;;;;;;5054504;28;19925;-63
2023/08/01 11:08:43;;;;;;;0.15;0.15;;;18.00;99.90;;;;;;5054124;28;20522;-62
2023/08/01 11:11:13;;;;;;;1.92;0.30;;;18.30;99.90;;;;;;5053750;28;20095;-65
2023/08/01 11:13:39;;;;;;;0.20;0.20;;;18.30;99.90;;;;;;5053893;28;20485;-64
2023/08/01 11:16:06;;;;;;;;;;;18.30;99.90;;;;;;5054360;28;20056;-63
2023/08/01 11:18:44;;;;;;;0.20;0.20;;;18.70;99.90;;;;;;5053753;28;19921;-65
2023/08/01 11:21:10;;;;;;;0.25;0.25;;;18.80;99.90;;;;;;5053391;28;20099;-64
2023/08/01 11:23:36;;;;;;;0.00;0.00;;;18.60;99.90;;;;;;5052892;28;20132;-65
2023/08/01 11:26:08;;;;;;;0.20;0.20;;;18.60;99.90;;;;;;5053667;28;20136;-63
2023/08/01 11:28:34;;;;;;;0.20;0.20;;;18.90;99.90;;;;;;5054130;28;20410;-64
2023/08/01 11:31:00;;;;;;;0.30;0.30;;;18.80;99.90;;;;;;5053584;28;20045;-65
2023/08/01 11:33:25;;;;;;;0.00;0.00;;;19.20;99.90;;;;;;5053502;28;20060;-64
2023/08/01 11:35:57;;;;;;;1.00;0.43;;;19.10;99.90;;;;;;5053906;28;20044;-65
2023/08/01 11:38:25;;;;;;;0.20;0.20;;;19.20;99.90;;;;;;5053771;28;20144;-63
2023/08/01 11:40:51;;;;;;;0.30;0.30;;;19.00;99.90;;;;;;5053306;28;20048;-63
2023/08/01 11:43:17;;;;;;;0.20;0.20;;;18.90;99.90;;;;;;5053303;28;20081;-63
2023/08/01 11:45:54;;;;;;;0.15;0.15;;;18.90;99.90;;;;;;5053337;28;20041;-63
2023/08/01 11:48:23;;;;;;;0.10;0.10;;;18.80;99.90;;;;;;5048807;28;20049;-64
2023/08/01 11:50:56;;;;;;;0.22;0.22;;;18.80;99.90;;;;;;5053423;28;20128;-63
2023/08/01 11:53:22;;;;;;;1.35;0.73;;;18.40;99.90;;;;;;5053645;28;20041;-64
2023/08/01 11:55:49;;;;;;;0.20;0.20;;;18.00;99.90;;;;;;5053854;28;20102;-64
2023/08/01 11:58:15;;;;;;;1.10;1.05;;;18.80;99.90;;;;;;5053672;28;20051;-63
2023/08/01 12:00:42;;;;;;;0.17;0.17;;;18.40;99.90;;;;;;5053559;28;20053;-64
2023/08/01 12:03:13;;;;;;;0.30;0.30;;;18.50;99.90;;;;;;5053492;28;20057;-64
2023/08/01 12:05:45;;;;;;;0.10;0.10;;;18.60;99.90;;;;;;5053210;28;20886;-64
2023/08/01 12:08:11;;;;;;;0.55;0.30;;;18.50;99.90;;;;;;5053369;28;20076;-64
2023/08/01 12:10:42;;;;;;;0.10;0.10;;;18.80;99.90;;;;;;5053046;28;20060;-64
2023/08/01 12:13:22;;;;;;;0.77;0.40;;;19.00;99.90;;;;;;5052949;28;20088;-63
2023/08/01 12:15:52;;;;;;;0.32;0.32;;;19.60;99.90;;;;;;5052641;28;20061;-65
2023/08/01 12:18:29;;;;;;;0.15;0.15;;;19.40;99.90;;;;;;5053310;28;20061;-64
2023/08/01 12:20:55;;;;;;;0.43;0.43;;;19.40;99.90;;;;;;5053299;28;20123;-62
2023/08/01 12:23:21;;;;;;;0.13;0.13;;;19.90;99.90;;;;;;5053018;28;20144;-64
2023/08/01 12:25:47;;;;;;;4.75;0.57;;;19.80;99.90;;;;;;5052914;28;20136;-65
2023/08/01 12:28:16;;;;;;;0.20;0.20;;;19.60;99.90;;;;;;5052824;28;20118;-65
2023/08/01 12:30:43;;;;;;;0.20;0.20;;;19.40;99.90;;;;;;5052476;28;20098;-65
2023/08/01 12:33:09;;;;;;;0.20;0.20;;;19.20;99.90;;;;;;5052826;28;20729;-63
2023/08/01 12:35:38;;;;;;;0.00;0.00;;;19.90;99.90;;;;;;5052726;28;20044;-63
2023/08/01 12:38:04;;;;;;;0.10;0.10;;;20.00;99.90;;;;;;5052733;28;20095;-64
2023/08/01 12:40:30;;;;;;;0.22;0.22;;;20.20;99.90;;;;;;5052726;28;20045;-64
2023/08/01 12:42:55;;;;;;;0.22;0.22;;;19.90;99.90;;;;;;5052486;28;20037;-64
2023/08/01 12:45:21;;;;;;;0.17;0.17;;;19.80;99.90;;;;;;5052176;28;20497;-65
2023/08/01 12:47:49;;;;;;;0.20;0.20;;;19.20;99.90;;;;;;5052542;28;20048;-65
2023/08/01 12:50:14;;;;;;;0.10;0.10;;;19.40;99.90;;;;;;5052440;28;20048;-65
2023/08/01 12:52:40;;;;;;;0.20;0.20;;;19.80;99.90;;;;;;5052313;28;20364;-65
2023/08/01 12:55:06;;;;;;;0.10;0.10;;;20.20;99.90;;;;;;5052330;28;20040;-63
2023/08/01 12:57:32;;;;;;;0.10;0.10;;;19.80;99.90;;;;;;5048659;28;20088;-64
2023/08/01 12:59:58;;;;;;;3.50;0.60;;;19.40;99.90;;;;;;5041640;28;20091;-64
2023/08/01 13:02:23;;;;;;;3.03;0.30;;;19.20;99.90;;;;;;5040194;28;20041;-64
2023/08/01 13:04:49;;;;;;;0.10;0.10;;;18.60;99.90;;;;;;5031746;28;20091;-64